Lemmon Valley, Nevada
Current Conditions -  °F | °C
As of 1:55 PM on Friday 28 Nov 2014 (Local Time) from KRTS Reporting Station
Clear Clear  
Wind Chill: 59°   Ceiling: Unl
Heat Index: 59°   Visibility: 10mi
Dew Point: -18°   Wind: 33mph
Humidity: 4%   Direction: 250°WSW
Pressure: 29.9"   Gusts: 43mph
Location:  39.7378°N, 119.889°W
Report Text: KRTS 282155Z AUTO 25029G37KT 10SM CLR 15/M28 A2990 RMK AO2
Loading
Personal Weather Stations






























Interactive Weather Map New forecast layout! Learn more

10-Day Weather Forecast

Advertisements
Track Severe Weather on mobile